Time;durP1;ratioP1;P1;durP2;ratioP2;P2;SDS_P1;SDS_P2;PMS_P1;PMS_P2;Temp;Humidity;BMP_temperature;BMP_pressure;BME280_temperature;BME280_humidity;BME280_pressure;Samples;Min_cycle;Max_cycle;Signal;HPM_P1;HPM_P2
2022/07/22 00:01:44;;;;;;;12.50;8.57;;;;;;;;;;5026291;28;20537;-56
2022/07/22 00:04:09;;;;;;;16.15;8.75;;;;;;;;;;5025822;28;20021;-56
2022/07/22 00:06:35;;;;;;;13.02;9.20;;;;;;;;;;5027178;28;20017;-56
2022/07/22 00:09:00;;;;;;;12.82;9.10;;;;;;;;;;5019674;28;20033;-56
2022/07/22 00:11:26;;;;;;;11.82;8.60;;;;;;;;;;5028545;28;20391;-56
2022/07/22 00:13:51;;;;;;;14.02;9.40;;;;;;;;;;5026250;28;20052;-56
2022/07/22 00:16:17;;;;;;;12.07;9.05;;;;;;;;;;5028542;28;20025;-56
2022/07/22 00:18:42;;;;;;;17.33;8.45;;;;;;;;;;5023809;28;20017;-56
2022/07/22 00:21:08;;;;;;;14.25;8.65;;;;;;;;;;5030503;28;20048;-56
2022/07/22 00:23:33;;;;;;;13.90;8.48;;;;;;;;;;5030326;28;20033;-56
2022/07/22 00:25:58;;;;;;;14.68;8.65;;;;;;;;;;5030412;28;20536;-56
2022/07/22 00:28:24;;;;;;;14.70;8.93;;;;;;;;;;5027022;28;20026;-56
2022/07/22 00:30:49;;;;;;;13.27;9.00;;;;;;;;;;5028525;28;20048;-56
2022/07/22 00:33:15;;;;;;;12.55;9.20;;;;;;;;;;5028769;28;20025;-56
2022/07/22 00:35:40;;;;;;;13.52;8.70;;;;;;;;;;5028714;28;20487;-56
2022/07/22 00:38:05;;;;;;;11.70;8.50;;;;;;;;;;5021338;28;20065;-56
2022/07/22 00:40:31;;;;;;;13.65;8.43;;;;;;;;;;5026131;28;20091;-56
2022/07/22 00:42:56;;;;;;;13.35;8.95;;;;;;;;;;5027506;28;20017;-56
2022/07/22 00:45:22;;;;;;;14.38;9.48;;;;;;;;;;5025937;28;20037;-56
2022/07/22 00:47:47;;;;;;;13.20;9.02;;;;;;;;;;5027903;28;20475;-56
2022/07/22 00:50:14;;;;;;;12.57;9.05;;;;;;;;;;5027851;28;20029;-56
2022/07/22 00:52:40;;;;;;;13.70;9.40;;;;;;;;;;5028417;28;20104;-56
2022/07/22 00:55:07;;;;;;;13.38;8.95;;;;;;;;;;5026244;28;20117;-56
2022/07/22 00:57:32;;;;;;;11.77;8.45;;;;;;;;;;5024811;28;20033;-56
2022/07/22 00:59:59;;;;;;;12.30;8.75;;;;;;;;;;5021309;28;20050;-56
2022/07/22 01:02:25;;;;;;;15.73;8.75;;;;;;;;;;5021431;28;20490;-56
2022/07/22 01:04:50;;;;;;;15.93;9.52;;;;;;;;;;5024238;28;20043;-56
2022/07/22 01:07:16;;;;;;;13.45;8.95;;;;;;;;;;5027646;28;20029;-56
2022/07/22 01:09:45;;;;;;;13.95;8.65;;;;;;;;;;5019894;28;20021;-56
2022/07/22 01:12:11;;;;;;;14.45;9.00;;;;;;;;;;5019578;28;20112;-56
2022/07/22 01:14:37;;;;;;;13.70;9.27;;;;;;;;;;5027129;28;20099;-56
2022/07/22 01:17:02;;;;;;;12.32;9.60;;;;;;;;;;5021656;28;20426;-56
2022/07/22 01:19:28;;;;;;;12.90;8.80;;;;;;;;;;5029234;28;20079;-56
2022/07/22 01:21:53;;;;;;;17.70;8.82;;;;;;;;;;5028198;28;20029;-56
2022/07/22 01:24:19;;;;;;;14.88;9.25;;;;;;;;;;5030632;28;20422;-56
2022/07/22 01:26:45;;;;;;;11.68;9.50;;;;;;;;;;5027753;28;20018;-56
2022/07/22 01:29:10;;;;;;;12.88;9.38;;;;;;;;;;5026609;28;20028;-56
2022/07/22 01:31:36;;;;;;;10.48;8.90;;;;;;;;;;5025351;28;20030;-56
2022/07/22 01:34:02;;;;;;;15.70;9.30;;;;;;;;;;5026551;28;20028;-56
2022/07/22 01:36:27;;;;;;;12.02;8.80;;;;;;;;;;5026034;28;20034;-56
2022/07/22 01:38:53;;;;;;;14.07;9.43;;;;;;;;;;5026330;28;20029;-56
2022/07/22 01:41:18;;;;;;;13.60;9.65;;;;;;;;;;5025662;28;20025;-56
2022/07/22 01:43:44;;;;;;;14.15;9.93;;;;;;;;;;5029674;28;20075;-55
2022/07/22 01:46:09;;;;;;;16.20;9.90;;;;;;;;;;5026283;28;20075;-56
2022/07/22 01:48:34;;;;;;;15.10;9.77;;;;;;;;;;5025201;28;20038;-56
2022/07/22 01:51:00;;;;;;;15.38;9.23;;;;;;;;;;5025448;28;20029;-56
2022/07/22 01:53:26;;;;;;;16.35;9.98;;;;;;;;;;5027733;28;20073;-56
2022/07/22 01:55:52;;;;;;;14.10;9.52;;;;;;;;;;5025413;28;20032;-56
2022/07/22 01:58:18;;;;;;;15.52;9.27;;;;;;;;;;5023240;28;20029;-56
2022/07/22 02:00:44;;;;;;;11.65;9.40;;;;;;;;;;5025178;28;20495;-56
2022/07/22 02:03:10;;;;;;;14.45;9.43;;;;;;;;;;5022856;28;20155;-56
2022/07/22 02:05:36;;;;;;;12.15;9.05;;;;;;;;;;5025128;28;20025;-56
2022/07/22 02:08:03;;;;;;;15.32;9.95;;;;;;;;;;5024994;28;20538;-55
2022/07/22 02:10:29;;;;;;;12.90;9.30;;;;;;;;;;5027607;28;20025;-56
2022/07/22 02:12:56;;;;;;;14.57;9.88;;;;;;;;;;5026252;28;20087;-55
2022/07/22 02:15:22;;;;;;;14.23;9.07;;;;;;;;;;5026048;28;20480;-56
2022/07/22 02:17:47;;;;;;;13.10;9.30;;;;;;;;;;5025116;28;20115;-55
2022/07/22 02:20:13;;;;;;;15.85;9.73;;;;;;;;;;5032585;28;20045;-55
2022/07/22 02:22:39;;;;;;;15.20;9.93;;;;;;;;;;5031087;28;20029;-55
2022/07/22 02:25:04;;;;;;;14.55;9.85;;;;;;;;;;5033233;28;20463;-56
2022/07/22 02:27:30;;;;;;;13.38;9.63;;;;;;;;;;5030853;28;20017;-55
2022/07/22 02:29:55;;;;;;;17.33;9.48;;;;;;;;;;5030847;28;20440;-56
2022/07/22 02:32:21;;;;;;;14.23;10.15;;;;;;;;;;5027951;28;20063;-55
2022/07/22 02:34:46;;;;;;;14.90;9.30;;;;;;;;;;5031608;28;20471;-56
2022/07/22 02:37:11;;;;;;;16.45;9.95;;;;;;;;;;5028347;28;21670;-56
2022/07/22 02:39:37;;;;;;;14.70;9.95;;;;;;;;;;5031842;28;20112;-55
2022/07/22 02:42:02;;;;;;;13.32;9.77;;;;;;;;;;5026159;28;20041;-56
2022/07/22 02:44:28;;;;;;;17.88;9.43;;;;;;;;;;5026375;28;20053;-55
2022/07/22 02:46:53;;;;;;;15.40;10.02;;;;;;;;;;5032262;28;20436;-55
2022/07/22 02:49:18;;;;;;;14.05;9.30;;;;;;;;;;5026764;28;20034;-55
2022/07/22 02:51:44;;;;;;;14.57;10.15;;;;;;;;;;5025352;28;20387;-56
2022/07/22 02:54:09;;;;;;;14.65;9.57;;;;;;;;;;5026625;28;20045;-56
2022/07/22 02:56:35;;;;;;;15.13;10.05;;;;;;;;;;5027296;28;20061;-55
2022/07/22 02:59:00;;;;;;;15.18;10.10;;;;;;;;;;5030524;28;20029;-55
2022/07/22 03:01:25;;;;;;;15.35;9.90;;;;;;;;;;5026710;28;20059;-56
2022/07/22 03:03:51;;;;;;;13.02;9.20;;;;;;;;;;5028163;28;20033;-56
2022/07/22 03:06:16;;;;;;;13.43;10.05;;;;;;;;;;5023232;28;20029;-56
2022/07/22 03:08:42;;;;;;;16.90;9.70;;;;;;;;;;5025995;28;20052;-55
2022/07/22 03:11:07;;;;;;;13.77;9.50;;;;;;;;;;5030577;28;20021;-56
2022/07/22 03:13:32;;;;;;;13.32;9.93;;;;;;;;;;5020925;28;20026;-56
2022/07/22 03:15:58;;;;;;;15.07;10.80;;;;;;;;;;5030250;28;20364;-56
2022/07/22 03:18:23;;;;;;;15.77;9.48;;;;;;;;;;5031258;28;20037;-56
2022/07/22 03:20:49;;;;;;;15.32;9.73;;;;;;;;;;5029639;28;20025;-56
2022/07/22 03:23:14;;;;;;;17.98;10.68;;;;;;;;;;5030973;28;20037;-56
2022/07/22 03:25:40;;;;;;;14.40;10.30;;;;;;;;;;5029677;28;20027;-56
2022/07/22 03:28:06;;;;;;;14.90;10.23;;;;;;;;;;5027288;28;20037;-56
2022/07/22 03:30:32;;;;;;;22.42;10.65;;;;;;;;;;5031009;28;20561;-56
2022/07/22 03:32:57;;;;;;;14.30;9.23;;;;;;;;;;5029019;28;20033;-56
2022/07/22 03:35:23;;;;;;;17.20;9.75;;;;;;;;;;5029437;28;20056;-56
2022/07/22 03:37:49;;;;;;;16.05;9.93;;;;;;;;;;5027502;28;20021;-56
2022/07/22 03:40:14;;;;;;;15.35;10.25;;;;;;;;;;5029390;28;20025;-56
2022/07/22 03:42:40;;;;;;;18.85;9.43;;;;;;;;;;5030956;28;20502;-56
2022/07/22 03:45:06;;;;;;;17.02;10.02;;;;;;;;;;5026259;28;20193;-56
2022/07/22 03:47:31;;;;;;;17.15;9.65;;;;;;;;;;5028075;28;20030;-55
2022/07/22 03:49:58;;;;;;;16.13;10.25;;;;;;;;;;5027700;28;20079;-55
2022/07/22 03:52:24;;;;;;;17.15;11.32;;;;;;;;;;5025506;28;20041;-55
2022/07/22 03:54:50;;;;;;;16.05;10.35;;;;;;;;;;5023944;28;20026;-55
2022/07/22 03:57:15;;;;;;;14.60;9.57;;;;;;;;;;5026518;28;20105;-55
2022/07/22 03:59:40;;;;;;;14.68;10.35;;;;;;;;;;5026741;28;20049;-55
2022/07/22 04:02:06;;;;;;;14.85;10.80;;;;;;;;;;5022085;28;20038;-55
2022/07/22 04:04:31;;;;;;;15.70;10.25;;;;;;;;;;5023150;28;20070;-56
2022/07/22 04:06:56;;;;;;;17.88;9.88;;;;;;;;;;5021927;28;20022;-56
2022/07/22 04:09:22;;;;;;;15.90;10.27;;;;;;;;;;5022153;28;20389;-56
2022/07/22 04:11:50;;;;;;;15.32;10.07;;;;;;;;;;5021730;28;20032;-56
2022/07/22 04:14:16;;;;;;;16.02;9.88;;;;;;;;;;5025750;28;20036;-56
2022/07/22 04:16:43;;;;;;;15.40;9.65;;;;;;;;;;5030993;28;20510;-56
2022/07/22 04:19:10;;;;;;;14.40;9.98;;;;;;;;;;5030712;28;20037;-56
2022/07/22 04:21:35;;;;;;;14.82;10.40;;;;;;;;;;5030336;28;20031;-56
2022/07/22 04:24:01;;;;;;;17.15;10.35;;;;;;;;;;5030230;28;20018;-56
2022/07/22 04:26:26;;;;;;;14.95;10.13;;;;;;;;;;5027298;28;20037;-56
2022/07/22 04:28:52;;;;;;;13.70;9.45;;;;;;;;;;5028334;28;20025;-56
2022/07/22 04:31:17;;;;;;;16.50;10.73;;;;;;;;;;5027204;28;20025;-56
2022/07/22 04:33:43;;;;;;;15.30;10.23;;;;;;;;;;5028769;28;20028;-56
2022/07/22 04:36:08;;;;;;;15.15;10.25;;;;;;;;;;5029520;28;20514;-57
2022/07/22 04:38:34;;;;;;;14.38;10.50;;;;;;;;;;5027048;28;20040;-56
2022/07/22 04:40:59;;;;;;;16.25;10.52;;;;;;;;;;5030747;28;20116;-57
2022/07/22 04:43:25;;;;;;;20.20;10.85;;;;;;;;;;5026696;28;20037;-57
2022/07/22 04:45:50;;;;;;;16.88;10.05;;;;;;;;;;5025902;28;20473;-56
2022/07/22 04:48:16;;;;;;;13.50;9.85;;;;;;;;;;5025471;28;20033;-56
2022/07/22 04:50:42;;;;;;;14.55;9.52;;;;;;;;;;5024627;28;20091;-56
2022/07/22 04:53:07;;;;;;;14.52;10.13;;;;;;;;;;5025932;28;20033;-56
2022/07/22 04:55:33;;;;;;;18.73;10.63;;;;;;;;;;5023881;28;20032;-56
2022/07/22 04:57:58;;;;;;;18.20;11.05;;;;;;;;;;5026953;28;20036;-58
2022/07/22 05:00:24;;;;;;;14.15;10.15;;;;;;;;;;5026651;28;20044;-58
2022/07/22 05:02:49;;;;;;;17.98;11.20;;;;;;;;;;5022659;28;20029;-59
2022/07/22 05:05:15;;;;;;;16.73;11.10;;;;;;;;;;5030665;28;20048;-58
2022/07/22 05:07:40;;;;;;;16.33;11.63;;;;;;;;;;5024561;28;20033;-58
2022/07/22 05:10:06;;;;;;;19.80;11.30;;;;;;;;;;5025271;28;20029;-59
2022/07/22 05:12:32;;;;;;;18.55;11.20;;;;;;;;;;5029248;28;20514;-59
2022/07/22 05:14:57;;;;;;;16.88;11.30;;;;;;;;;;5030521;28;20033;-59
2022/07/22 05:17:23;;;;;;;15.60;11.20;;;;;;;;;;5028709;28;20033;-59
2022/07/22 05:19:48;;;;;;;17.77;11.23;;;;;;;;;;5029347;28;20018;-58
2022/07/22 05:22:14;;;;;;;17.70;11.70;;;;;;;;;;5032532;28;20450;-59
2022/07/22 05:24:39;;;;;;;18.67;11.85;;;;;;;;;;5026919;28;20029;-59
2022/07/22 05:27:05;;;;;;;18.27;11.98;;;;;;;;;;5025694;28;20017;-59
2022/07/22 05:29:30;;;;;;;16.95;11.63;;;;;;;;;;5027315;28;20667;-58
2022/07/22 05:31:56;;;;;;;16.00;11.05;;;;;;;;;;5025244;28;20025;-57
2022/07/22 05:34:22;;;;;;;18.55;12.60;;;;;;;;;;5030042;28;20108;-57
2022/07/22 05:36:47;;;;;;;19.55;12.45;;;;;;;;;;5026798;28;20087;-56
2022/07/22 05:39:13;;;;;;;15.80;10.90;;;;;;;;;;5025685;28;20021;-56
2022/07/22 05:41:39;;;;;;;19.15;11.23;;;;;;;;;;5024767;28;20475;-57
2022/07/22 05:44:05;;;;;;;16.80;11.00;;;;;;;;;;5020939;28;20550;-57
2022/07/22 05:46:31;;;;;;;17.10;11.35;;;;;;;;;;5021244;28;20164;-56
2022/07/22 05:48:56;;;;;;;15.82;10.57;;;;;;;;;;5021425;28;20112;-54
2022/07/22 05:51:22;;;;;;;17.92;10.98;;;;;;;;;;5018913;28;20034;-54
2022/07/22 05:53:48;;;;;;;17.67;11.23;;;;;;;;;;5021606;28;20461;-54
2022/07/22 05:56:13;;;;;;;16.95;11.15;;;;;;;;;;5019448;28;20034;-54
2022/07/22 05:58:40;;;;;;;20.20;11.38;;;;;;;;;;5020560;28;20021;-54
2022/07/22 06:01:05;;;;;;;17.20;12.05;;;;;;;;;;5020656;28;20411;-58
2022/07/22 06:03:31;;;;;;;19.42;12.35;;;;;;;;;;5018767;28;20025;-58
2022/07/22 06:05:56;;;;;;;19.60;12.73;;;;;;;;;;5025249;28;20022;-58
2022/07/22 06:08:22;;;;;;;22.02;12.60;;;;;;;;;;5018035;28;20061;-58
2022/07/22 06:10:47;;;;;;;21.15;12.73;;;;;;;;;;5023477;28;20022;-58
2022/07/22 06:13:13;;;;;;;19.75;12.02;;;;;;;;;;5026306;28;20043;-59
2022/07/22 06:15:38;;;;;;;23.10;13.55;;;;;;;;;;5027929;28;20552;-58
2022/07/22 06:18:04;;;;;;;21.20;13.70;;;;;;;;;;5024824;28;20029;-58
2022/07/22 06:20:29;;;;;;;21.95;14.10;;;;;;;;;;5025404;28;20395;-58
2022/07/22 06:22:55;;;;;;;24.70;15.23;;;;;;;;;;5024869;28;20068;-58
2022/07/22 06:25:20;;;;;;;24.17;16.02;;;;;;;;;;5023532;28;20619;-58
2022/07/22 06:27:45;;;;;;;21.08;14.63;;;;;;;;;;5024575;28;20459;-58
2022/07/22 06:30:11;;;;;;;22.08;15.05;;;;;;;;;;5024697;28;20510;-59
2022/07/22 06:32:37;;;;;;;21.77;13.98;;;;;;;;;;5024190;28;20284;-59
2022/07/22 06:35:03;;;;;;;25.27;14.85;;;;;;;;;;5023644;28;20510;-59
2022/07/22 06:37:28;;;;;;;23.27;14.38;;;;;;;;;;5027427;28;20064;-59
2022/07/22 06:39:54;;;;;;;23.60;14.23;;;;;;;;;;5024362;28;20633;-59
2022/07/22 06:42:19;;;;;;;22.08;14.02;;;;;;;;;;5019290;28;20061;-58
2022/07/22 06:44:44;;;;;;;25.60;14.48;;;;;;;;;;5022142;28;20112;-59
2022/07/22 06:47:10;;;;;;;21.42;13.82;;;;;;;;;;5023992;28;20039;-59
2022/07/22 06:49:35;;;;;;;19.15;12.77;;;;;;;;;;5020981;28;20095;-59
2022/07/22 06:52:01;;;;;;;20.33;14.27;;;;;;;;;;5015818;28;20031;-58
2022/07/22 06:54:27;;;;;;;23.75;14.75;;;;;;;;;;5018620;28;20039;-59
2022/07/22 06:56:52;;;;;;;21.52;13.85;;;;;;;;;;5021093;28;20117;-58
2022/07/22 06:59:18;;;;;;;19.63;13.82;;;;;;;;;;5023763;28;20112;-59
2022/07/22 07:01:43;;;;;;;22.60;15.38;;;;;;;;;;5026715;28;20110;-58
2022/07/22 07:04:09;;;;;;;17.75;13.10;;;;;;;;;;5026223;28;20495;-59
2022/07/22 07:06:34;;;;;;;26.45;14.30;;;;;;;;;;5025134;28;20025;-58
2022/07/22 07:09:00;;;;;;;20.35;13.10;;;;;;;;;;5026163;28;20037;-59
2022/07/22 07:11:25;;;;;;;20.75;14.18;;;;;;;;;;5025444;28;20093;-59
2022/07/22 07:13:51;;;;;;;23.40;13.90;;;;;;;;;;5026002;28;20089;-58
2022/07/22 07:16:16;;;;;;;22.70;13.70;;;;;;;;;;5025145;28;20108;-58
2022/07/22 07:18:42;;;;;;;20.02;12.88;;;;;;;;;;5026316;28;20048;-59
2022/07/22 07:21:07;;;;;;;20.73;13.77;;;;;;;;;;5024259;28;20030;-58
2022/07/22 07:23:32;;;;;;;21.00;14.52;;;;;;;;;;5025192;28;20147;-58
2022/07/22 07:25:58;;;;;;;21.38;14.27;;;;;;;;;;5024387;28;20059;-58
2022/07/22 07:28:23;;;;;;;21.25;14.55;;;;;;;;;;5026506;28;20076;-59
2022/07/22 07:30:49;;;;;;;22.85;14.18;;;;;;;;;;5025400;28;20033;-59
2022/07/22 07:33:15;;;;;;;20.15;13.32;;;;;;;;;;5023274;28;20045;-58
2022/07/22 07:35:40;;;;;;;20.98;14.55;;;;;;;;;;5024986;28;20110;-59
2022/07/22 07:38:06;;;;;;;18.52;13.57;;;;;;;;;;5023401;28;20026;-59
2022/07/22 07:40:31;;;;;;;24.27;15.00;;;;;;;;;;5026281;28;20071;-59
2022/07/22 07:42:57;;;;;;;23.08;14.48;;;;;;;;;;5024958;28;20053;-59
2022/07/22 07:45:22;;;;;;;23.27;14.00;;;;;;;;;;5023625;28;20446;-59
2022/07/22 07:47:48;;;;;;;20.38;14.40;;;;;;;;;;5022327;28;20483;-59
2022/07/22 07:50:14;;;;;;;20.08;14.18;;;;;;;;;;5021952;28;20508;-59
2022/07/22 07:52:41;;;;;;;22.75;14.85;;;;;;;;;;5024577;28;20029;-59
2022/07/22 07:55:08;;;;;;;20.25;14.45;;;;;;;;;;5025995;28;20112;-58
2022/07/22 07:57:34;;;;;;;21.75;14.77;;;;;;;;;;5026766;28;20037;-57
2022/07/22 07:59:59;;;;;;;19.52;14.05;;;;;;;;;;5027954;28;20053;-56
2022/07/22 08:02:25;;;;;;;21.08;14.38;;;;;;;;;;5023407;28;20060;-57
2022/07/22 08:04:50;;;;;;;20.27;14.00;;;;;;;;;;5023759;28;20120;-58
2022/07/22 08:07:16;;;;;;;25.42;15.50;;;;;;;;;;5019994;28;20030;-57
2022/07/22 08:09:41;;;;;;;22.55;14.20;;;;;;;;;;5019215;28;20028;-57
2022/07/22 08:12:07;;;;;;;20.48;14.30;;;;;;;;;;5016592;28;20464;-57
2022/07/22 08:14:32;;;;;;;23.23;14.60;;;;;;;;;;5021708;28;20037;-57
2022/07/22 08:16:58;;;;;;;24.20;13.98;;;;;;;;;;5025152;28;20311;-57
2022/07/22 08:19:24;;;;;;;20.92;14.15;;;;;;;;;;5026725;28;20063;-60
2022/07/22 08:21:49;;;;;;;19.58;14.05;;;;;;;;;;5026280;28;20525;-61
2022/07/22 08:24:14;;;;;;;23.30;13.82;;;;;;;;;;5024906;28;20062;-58
2022/07/22 08:26:40;;;;;;;21.30;13.55;;;;;;;;;;5026826;28;20071;-58
2022/07/22 08:29:07;;;;;;;18.65;14.35;;;;;;;;;;5025530;28;20030;-58
2022/07/22 08:31:34;;;;;;;24.20;14.27;;;;;;;;;;5024938;28;20044;-58
2022/07/22 08:34:03;;;;;;;21.23;14.30;;;;;;;;;;5023576;28;20072;-58
2022/07/22 08:36:29;;;;;;;18.83;13.63;;;;;;;;;;5024434;28;20029;-58
2022/07/22 08:38:55;;;;;;;21.52;14.75;;;;;;;;;;5023176;28;20087;-58
2022/07/22 08:41:23;;;;;;;20.33;13.88;;;;;;;;;;5022231;28;20039;-58
2022/07/22 08:43:50;;;;;;;20.55;14.13;;;;;;;;;;5026677;28;20033;-57
2022/07/22 08:46:15;;;;;;;18.58;14.15;;;;;;;;;;5021252;28;20030;-58
2022/07/22 08:48:42;;;;;;;21.45;13.80;;;;;;;;;;5020957;28;20171;-58
2022/07/22 08:51:07;;;;;;;18.98;13.85;;;;;;;;;;5022679;28;20064;-57
2022/07/22 08:53:33;;;;;;;20.70;13.93;;;;;;;;;;5020624;28;20492;-57
2022/07/22 08:55:59;;;;;;;19.02;14.18;;;;;;;;;;5022024;28;20030;-58
2022/07/22 08:58:25;;;;;;;21.58;13.65;;;;;;;;;;5017959;28;20526;-58
2022/07/22 09:01:11;;;;;;;19.67;13.60;;;;;;;;;;5019048;28;20106;-58
2022/07/22 09:03:50;;;;;;;22.15;14.00;;;;;;;;;;5016925;28;20025;-58
2022/07/22 09:06:17;;;;;;;20.77;13.75;;;;;;;;;;5019406;28;20407;-58
2022/07/22 09:08:54;;;;;;;20.10;13.38;;;;;;;;;;5016914;28;20028;-58
2022/07/22 09:11:21;;;;;;;21.85;13.35;;;;;;;;;;5027139;28;20075;-57
2022/07/22 09:13:47;;;;;;;22.65;13.63;;;;;;;;;;5025752;28;20052;-58
2022/07/22 09:16:13;;;;;;;21.95;13.10;;;;;;;;;;5017236;28;20475;-58
2022/07/22 09:18:49;;;;;;;18.48;13.18;;;;;;;;;;5024922;28;20030;-58
2022/07/22 09:21:15;;;;;;;19.30;12.68;;;;;;;;;;5022741;28;20041;-58
2022/07/22 09:23:42;;;;;;;17.48;13.23;;;;;;;;;;5027083;28;20032;-58
2022/07/22 09:26:07;;;;;;;19.77;13.25;;;;;;;;;;5021274;28;20026;-58
2022/07/22 09:28:33;;;;;;;18.63;13.40;;;;;;;;;;5022957;28;20087;-58
2022/07/22 09:30:59;;;;;;;20.67;14.43;;;;;;;;;;5022824;28;20472;-58
2022/07/22 09:33:25;;;;;;;21.63;13.25;;;;;;;;;;5023152;28;20040;-58
2022/07/22 09:35:50;;;;;;;19.52;13.50;;;;;;;;;;5023595;28;20101;-58
2022/07/22 09:38:19;;;;;;;19.45;13.70;;;;;;;;;;5022960;28;20427;-58
2022/07/22 09:40:47;;;;;;;19.42;13.27;;;;;;;;;;5025167;28;20059;-57
2022/07/22 09:43:16;;;;;;;20.45;14.40;;;;;;;;;;5019517;28;20121;-58
2022/07/22 09:45:57;;;;;;;17.58;13.48;;;;;;;;;;5018489;28;20106;-58
2022/07/22 09:48:23;;;;;;;15.63;12.48;;;;;;;;;;5021101;28;20017;-59
2022/07/22 09:50:50;;;;;;;18.88;13.27;;;;;;;;;;5021946;28;20515;-59
2022/07/22 09:53:18;;;;;;;19.10;13.20;;;;;;;;;;5024427;28;20446;-59
2022/07/22 09:55:43;;;;;;;17.67;12.93;;;;;;;;;;5020569;28;20028;-59
2022/07/22 09:58:09;;;;;;;18.60;12.77;;;;;;;;;;5024782;28;20399;-59
2022/07/22 10:00:36;;;;;;;17.08;12.85;;;;;;;;;;5018389;28;20033;-59
2022/07/22 10:03:05;;;;;;;15.80;12.88;;;;;;;;;;5018363;28;20090;-59
2022/07/22 10:05:32;;;;;;;20.35;12.27;;;;;;;;;;5028564;28;20033;-58
2022/07/22 10:08:00;;;;;;;14.60;12.23;;;;;;;;;;5021197;28;20025;-59
2022/07/22 10:10:28;;;;;;;17.15;12.27;;;;;;;;;;5026734;28;20120;-59
2022/07/22 10:12:56;;;;;;;16.60;12.35;;;;;;;;;;5021330;28;20395;-59
2022/07/22 10:15:22;;;;;;;18.02;13.07;;;;;;;;;;5025836;28;20125;-59
2022/07/22 10:17:50;;;;;;;16.05;12.43;;;;;;;;;;5020976;28;20018;-59
2022/07/22 10:20:18;;;;;;;16.10;12.37;;;;;;;;;;5023795;28;20022;-59
2022/07/22 10:22:52;;;;;;;17.20;12.02;;;;;;;;;;5024559;28;20029;-59
2022/07/22 10:25:19;;;;;;;15.27;12.23;;;;;;;;;;5023709;28;20030;-59
2022/07/22 10:28:04;;;;;;;16.55;11.85;;;;;;;;;;5029469;28;20505;-61
2022/07/22 10:30:35;;;;;;;14.00;11.93;;;;;;;;;;5023064;28;20048;-61
2022/07/22 10:33:21;;;;;;;14.60;11.52;;;;;;;;;;5022176;28;20030;-61
2022/07/22 10:35:59;;;;;;;17.60;12.52;;;;;;;;;;5022856;28;20491;-62
2022/07/22 10:38:26;;;;;;;14.00;12.20;;;;;;;;;;5025541;28;20048;-62
2022/07/22 10:40:55;;;;;;;13.63;11.18;;;;;;;;;;5029437;28;20041;-63
2022/07/22 10:43:26;;;;;;;13.98;11.80;;;;;;;;;;5022878;28;20037;-62
2022/07/22 10:45:53;;;;;;;13.50;11.68;;;;;;;;;;5022461;28;20492;-63
2022/07/22 10:48:25;;;;;;;15.68;11.55;;;;;;;;;;5027195;28;20045;-62
2022/07/22 10:50:55;;;;;;;16.58;12.18;;;;;;;;;;5028386;28;20030;-64
2022/07/22 10:53:39;;;;;;;15.55;11.35;;;;;;;;;;5023440;28;20033;-62
2022/07/22 10:56:13;;;;;;;14.43;11.60;;;;;;;;;;5024023;28;20033;-62
2022/07/22 10:58:44;;;;;;;14.63;11.75;;;;;;;;;;5026958;28;20034;-62
2022/07/22 11:01:12;;;;;;;16.23;11.63;;;;;;;;;;5024733;28;20112;-63
2022/07/22 11:03:39;;;;;;;14.70;11.30;;;;;;;;;;5026476;28;20112;-63
2022/07/22 11:06:14;;;;;;;15.07;11.57;;;;;;;;;;5027303;28;20280;-67
2022/07/22 11:08:40;;;;;;;13.23;11.07;;;;;;;;;;5031148;28;20121;-66
2022/07/22 11:11:06;;;;;;;12.55;10.90;;;;;;;;;;5027653;28;20072;-67
2022/07/22 11:13:37;;;;;;;14.93;11.35;;;;;;;;;;5028380;28;20056;-68
2022/07/22 11:16:19;;;;;;;14.60;11.30;;;;;;;;;;5028281;28;20108;-67
2022/07/22 11:19:00;;;;;;;14.02;11.23;;;;;;;;;;5023492;28;20441;-67
2022/07/22 11:21:28;;;;;;;12.77;11.35;;;;;;;;;;5025817;28;20383;-67
2022/07/22 11:23:56;;;;;;;17.38;11.35;;;;;;;;;;5025724;28;20566;-67
2022/07/22 11:26:31;;;;;;;15.95;10.70;;;;;;;;;;5026557;28;20491;-68
2022/07/22 11:28:57;;;;;;;11.40;10.25;;;;;;;;;;5025370;28;20017;-68
2022/07/22 11:31:22;;;;;;;12.00;10.65;;;;;;;;;;5024565;28;20028;-68
2022/07/22 11:33:48;;;;;;;12.68;10.90;;;;;;;;;;5017083;28;20036;-68
2022/07/22 11:36:14;;;;;;;14.13;10.50;;;;;;;;;;5020000;28;20553;-67
2022/07/22 11:38:45;;;;;;;12.43;10.15;;;;;;;;;;5017139;28;20025;-68
2022/07/22 11:41:11;;;;;;;13.07;10.20;;;;;;;;;;5017536;28;20549;-68
2022/07/22 11:43:41;;;;;;;13.80;10.70;;;;;;;;;;5017897;28;20026;-68
2022/07/22 11:46:07;;;;;;;12.32;10.77;;;;;;;;;;5014394;28;20037;-66
2022/07/22 11:48:32;;;;;;;11.63;10.10;;;;;;;;;;5017113;28;20018;-68
2022/07/22 11:51:02;;;;;;;13.52;10.63;;;;;;;;;;5012939;28;20025;-69
2022/07/22 11:53:28;;;;;;;15.50;10.85;;;;;;;;;;5016439;28;20036;-68
2022/07/22 11:56:01;;;;;;;11.70;10.02;;;;;;;;;;5020062;28;20033;-64
2022/07/22 11:58:56;;;;;;;12.80;10.32;;;;;;;;;;5016081;28;20036;-64
2022/07/22 12:01:27;;;;;;;13.25;10.55;;;;;;;;;;5020450;28;20095;-63
2022/07/22 12:03:55;;;;;;;12.15;9.77;;;;;;;;;;5017044;28;20033;-65
2022/07/22 12:06:22;;;;;;;12.65;9.75;;;;;;;;;;5015738;28;20022;-64
2022/07/22 12:08:51;;;;;;;12.25;10.07;;;;;;;;;;5019548;28;20033;-64
2022/07/22 12:11:18;;;;;;;14.57;9.80;;;;;;;;;;5016364;28;20025;-65
2022/07/22 12:13:45;;;;;;;13.80;9.23;;;;;;;;;;5021583;28;20120;-64
2022/07/22 12:16:41;;;;;;;10.87;9.77;;;;;;;;;;5013265;28;20029;-64
2022/07/22 12:19:09;;;;;;;14.00;9.60;;;;;;;;;;5019399;28;20045;-65
2022/07/22 12:21:36;;;;;;;;;;;;;;;;;;5016881;28;20029;-64
2022/07/22 12:24:10;;;;;;;11.10;9.52;;;;;;;;;;5025116;28;19919;-65
2022/07/22 12:26:38;;;;;;;11.07;9.65;;;;;;;;;;5016921;28;20408;-65
2022/07/22 12:29:15;;;;;;;;;;;;;;;;;;5015108;28;20033;-65
2022/07/22 12:31:45;;;;;;;11.15;9.38;;;;;;;;;;5016661;28;20286;-64
2022/07/22 12:34:12;;;;;;;12.80;9.48;;;;;;;;;;5013923;28;20048;-64
2022/07/22 12:36:37;;;;;;;11.85;9.52;;;;;;;;;;5019434;28;20032;-63
2022/07/22 12:39:18;;;;;;;11.57;9.20;;;;;;;;;;5018062;28;20033;-63
2022/07/22 12:41:54;;;;;;;10.98;9.30;;;;;;;;;;5021657;28;20032;-64
2022/07/22 12:44:23;;;;;;;10.15;9.10;;;;;;;;;;5021786;28;20168;-64
2022/07/22 12:46:50;;;;;;;10.82;9.40;;;;;;;;;;5022406;28;20053;-58
2022/07/22 12:49:18;;;;;;;11.75;8.95;;;;;;;;;;5022991;28;20033;-64
2022/07/22 12:52:13;;;;;;;12.95;9.55;;;;;;;;;;5015045;28;20121;-65
2022/07/22 12:54:40;;;;;;;13.25;8.98;;;;;;;;;;5023272;28;20037;-65
2022/07/22 12:57:07;;;;;;;11.60;9.52;;;;;;;;;;5020985;28;20045;-65
2022/07/22 12:59:34;;;;;;;11.27;9.73;;;;;;;;;;5015192;28;20030;-65
2022/07/22 13:01:59;;;;;;;9.80;8.73;;;;;;;;;;5016276;28;20034;-64
2022/07/22 13:04:25;;;;;;;10.43;9.35;;;;;;;;;;5018583;28;20711;-65
2022/07/22 13:06:50;;;;;;;11.15;8.65;;;;;;;;;;5019597;28;20387;-65
2022/07/22 13:09:16;;;;;;;12.60;7.93;;;;;;;;;;5028331;28;20025;-65
2022/07/22 13:11:43;;;;;;;10.75;8.90;;;;;;;;;;5028611;28;20088;-65
2022/07/22 13:14:10;;;;;;;10.73;8.97;;;;;;;;;;5027000;28;20483;-65
2022/07/22 13:16:35;;;;;;;10.00;8.45;;;;;;;;;;5025214;28;20261;-64
2022/07/22 13:19:01;;;;;;;11.70;8.82;;;;;;;;;;5026306;28;20091;-64
2022/07/22 13:21:27;;;;;;;13.02;8.38;;;;;;;;;;5024027;28;20040;-65
2022/07/22 13:23:52;;;;;;;9.63;8.63;;;;;;;;;;5029214;28;20033;-65
2022/07/22 13:26:18;;;;;;;12.77;8.18;;;;;;;;;;5026405;28;20113;-63
2022/07/22 13:28:43;;;;;;;10.90;8.75;;;;;;;;;;5027609;28;20043;-63
2022/07/22 13:31:09;;;;;;;10.65;8.88;;;;;;;;;;5022460;28;20032;-62
2022/07/22 13:33:34;;;;;;;9.52;8.40;;;;;;;;;;5019388;28;20106;-64
2022/07/22 13:36:00;;;;;;;10.60;8.18;;;;;;;;;;5028765;28;20025;-65
2022/07/22 13:38:26;;;;;;;9.05;8.15;;;;;;;;;;5027953;28;20115;-64
2022/07/22 13:40:51;;;;;;;11.73;8.60;;;;;;;;;;5024116;28;20091;-65
2022/07/22 13:43:18;;;;;;;11.43;8.30;;;;;;;;;;5027067;28;20441;-63
2022/07/22 13:45:44;;;;;;;10.32;8.68;;;;;;;;;;5030478;28;20057;-65
2022/07/22 13:48:09;;;;;;;9.50;8.35;;;;;;;;;;5027515;28;20115;-65
2022/07/22 13:50:34;;;;;;;10.02;8.32;;;;;;;;;;5023951;28;20507;-65
2022/07/22 13:53:00;;;;;;;9.90;8.05;;;;;;;;;;5022485;28;20030;-66
2022/07/22 13:55:26;;;;;;;9.25;7.88;;;;;;;;;;5025326;28;20036;-66
2022/07/22 13:57:52;;;;;;;10.90;8.35;;;;;;;;;;5026385;28;20818;-65
2022/07/22 14:00:17;;;;;;;14.85;8.65;;;;;;;;;;5021822;28;20060;-65
2022/07/22 14:02:44;;;;;;;8.85;7.95;;;;;;;;;;5019480;28;20030;-65
2022/07/22 14:05:10;;;;;;;11.25;8.63;;;;;;;;;;5029199;28;20029;-66
2022/07/22 14:07:36;;;;;;;9.50;8.38;;;;;;;;;;5026958;28;20028;-65
2022/07/22 14:10:03;;;;;;;13.00;8.60;;;;;;;;;;5033373;28;20407;-66
2022/07/22 14:12:28;;;;;;;10.50;7.97;;;;;;;;;;5029997;28;20500;-66
2022/07/22 14:14:54;;;;;;;9.13;7.93;;;;;;;;;;5030511;28;20244;-65
2022/07/22 14:17:19;;;;;;;10.23;8.25;;;;;;;;;;5030006;28;20068;-65
2022/07/22 14:19:44;;;;;;;9.48;8.23;;;;;;;;;;5030998;28;20022;-65
2022/07/22 14:22:10;;;;;;;10.82;8.50;;;;;;;;;;5026683;28;20068;-65